sensor_id;sensor_type;location;lat;lon;timestamp;P1;durP1;ratioP1;P2;durP2;ratioP2
63114;SDS011;49208;50.874;6.466;2023-07-28T06:02:20;3.80;;;1.05;;
63114;SDS011;49208;50.874;6.466;2023-07-28T06:04:46;2.83;;;1.30;;
63114;SDS011;49208;50.874;6.466;2023-07-28T06:07:12;5.03;;;1.45;;
63114;SDS011;49208;50.874;6.466;2023-07-28T06:09:38;5.57;;;1.58;;
63114;SDS011;49208;50.874;6.466;2023-07-28T06:12:03;5.47;;;1.70;;
63114;SDS011;49208;50.874;6.466;2023-07-28T06:14:29;3.95;;;1.80;;
63114;SDS011;49208;50.874;6.466;2023-07-28T06:16:54;5.18;;;1.60;;
63114;SDS011;49208;50.874;6.466;2023-07-28T06:19:19;4.97;;;1.70;;
63114;SDS011;49208;50.874;6.466;2023-07-28T06:21:49;4.43;;;1.70;;
63114;SDS011;49208;50.874;6.466;2023-07-28T06:24:15;5.75;;;1.90;;
63114;SDS011;49208;50.874;6.466;2023-07-28T06:26:41;4.45;;;2.15;;
63114;SDS011;49208;50.874;6.466;2023-07-28T06:29:06;4.25;;;1.80;;
63114;SDS011;49208;50.874;6.466;2023-07-28T06:31:31;3.88;;;1.65;;
63114;SDS011;49208;50.874;6.466;2023-07-28T06:33:57;3.88;;;1.80;;
63114;SDS011;49208;50.874;6.466;2023-07-28T06:36:23;8.18;;;1.67;;
63114;SDS011;49208;50.874;6.466;2023-07-28T06:38:49;4.45;;;1.75;;
63114;SDS011;49208;50.874;6.466;2023-07-28T06:41:15;4.45;;;2.00;;
63114;SDS011;49208;50.874;6.466;2023-07-28T06:43:40;4.63;;;2.05;;
63114;SDS011;49208;50.874;6.466;2023-07-28T06:46:06;3.97;;;1.65;;
63114;SDS011;49208;50.874;6.466;2023-07-28T06:48:31;4.78;;;1.90;;
63114;SDS011;49208;50.874;6.466;2023-07-28T06:50:57;4.55;;;2.17;;
63114;SDS011;49208;50.874;6.466;2023-07-28T06:53:22;6.05;;;2.22;;
63114;SDS011;49208;50.874;6.466;2023-07-28T06:55:47;5.28;;;1.88;;
63114;SDS011;49208;50.874;6.466;2023-07-28T06:58:13;4.80;;;1.77;;
63114;SDS011;49208;50.874;6.466;2023-07-28T07:00:38;3.22;;;1.77;;
63114;SDS011;49208;50.874;6.466;2023-07-28T07:03:03;6.43;;;2.10;;
63114;SDS011;49208;50.874;6.466;2023-07-28T07:05:29;5.00;;;2.03;;
63114;SDS011;49208;50.874;6.466;2023-07-28T07:07:54;5.13;;;2.13;;
63114;SDS011;49208;50.874;6.466;2023-07-28T07:10:20;4.00;;;1.60;;
63114;SDS011;49208;50.874;6.466;2023-07-28T07:12:46;3.38;;;1.63;;
63114;SDS011;49208;50.874;6.466;2023-07-28T07:15:11;5.20;;;2.47;;
63114;SDS011;49208;50.874;6.466;2023-07-28T07:17:36;2.97;;;1.40;;
63114;SDS011;49208;50.874;6.466;2023-07-28T07:20:02;4.68;;;1.70;;
63114;SDS011;49208;50.874;6.466;2023-07-28T07:22:28;4.47;;;1.50;;
63114;SDS011;49208;50.874;6.466;2023-07-28T07:24:53;2.47;;;1.13;;
63114;SDS011;49208;50.874;6.466;2023-07-28T07:27:19;3.30;;;1.35;;
63114;SDS011;49208;50.874;6.466;2023-07-28T07:29:45;3.58;;;1.50;;
63114;SDS011;49208;50.874;6.466;2023-07-28T07:32:10;3.53;;;1.15;;
63114;SDS011;49208;50.874;6.466;2023-07-28T07:34:36;3.38;;;1.25;;
63114;SDS011;49208;50.874;6.466;2023-07-28T07:37:03;3.00;;;1.23;;
63114;SDS011;49208;50.874;6.466;2023-07-28T07:39:29;6.32;;;1.48;;
63114;SDS011;49208;50.874;6.466;2023-07-28T07:41:54;2.33;;;1.02;;
63114;SDS011;49208;50.874;6.466;2023-07-28T07:44:19;3.30;;;1.50;;
63114;SDS011;49208;50.874;6.466;2023-07-28T07:46:45;3.38;;;1.38;;
63114;SDS011;49208;50.874;6.466;2023-07-28T07:49:10;3.78;;;1.50;;
63114;SDS011;49208;50.874;6.466;2023-07-28T07:51:35;3.03;;;1.15;;
63114;SDS011;49208;50.874;6.466;2023-07-28T07:54:01;4.35;;;1.58;;
63114;SDS011;49208;50.874;6.466;2023-07-28T07:56:26;4.32;;;1.27;;
63114;SDS011;49208;50.874;6.466;2023-07-28T07:58:52;3.95;;;1.40;;
63114;SDS011;49208;50.874;6.466;2023-07-28T08:01:18;2.45;;;1.10;;
63114;SDS011;49208;50.874;6.466;2023-07-28T08:03:43;3.90;;;1.10;;
63114;SDS011;49208;50.874;6.466;2023-07-28T08:06:08;2.95;;;1.15;;
63114;SDS011;49208;50.874;6.466;2023-07-28T08:08:36;3.38;;;1.30;;
63114;SDS011;49208;50.874;6.466;2023-07-28T08:11:02;3.92;;;1.30;;
63114;SDS011;49208;50.874;6.466;2023-07-28T08:13:27;4.57;;;1.08;;
63114;SDS011;49208;50.874;6.466;2023-07-28T08:15:53;2.35;;;1.10;;
63114;SDS011;49208;50.874;6.466;2023-07-28T08:18:19;4.35;;;1.10;;
63114;SDS011;49208;50.874;6.466;2023-07-28T08:20:44;4.30;;;1.05;;
63114;SDS011;49208;50.874;6.466;2023-07-28T08:23:10;2.40;;;0.90;;
63114;SDS011;49208;50.874;6.466;2023-07-28T08:25:36;2.40;;;0.90;;
63114;SDS011;49208;50.874;6.466;2023-07-28T08:28:01;2.53;;;0.90;;
63114;SDS011;49208;50.874;6.466;2023-07-28T08:30:27;3.13;;;0.98;;
63114;SDS011;49208;50.874;6.466;2023-07-28T08:32:52;1.73;;;0.95;;
63114;SDS011;49208;50.874;6.466;2023-07-28T08:35:17;2.95;;;1.20;;
63114;SDS011;49208;50.874;6.466;2023-07-28T08:37:43;1.98;;;0.93;;
63114;SDS011;49208;50.874;6.466;2023-07-28T08:40:09;2.15;;;0.95;;
63114;SDS011;49208;50.874;6.466;2023-07-28T08:42:36;3.75;;;1.05;;
63114;SDS011;49208;50.874;6.466;2023-07-28T08:45:04;1.67;;;0.75;;
63114;SDS011;49208;50.874;6.466;2023-07-28T08:47:30;1.55;;;0.90;;
63114;SDS011;49208;50.874;6.466;2023-07-28T08:49:56;2.17;;;0.60;;
63114;SDS011;49208;50.874;6.466;2023-07-28T08:52:22;3.65;;;0.90;;
63114;SDS011;49208;50.874;6.466;2023-07-28T08:54:48;1.45;;;0.80;;
63114;SDS011;49208;50.874;6.466;2023-07-28T08:57:14;1.60;;;0.70;;
63114;SDS011;49208;50.874;6.466;2023-07-28T08:59:40;1.75;;;0.80;;
63114;SDS011;49208;50.874;6.466;2023-07-28T09:02:12;2.78;;;1.05;;
63114;SDS011;49208;50.874;6.466;2023-07-28T09:04:40;2.17;;;0.88;;
63114;SDS011;49208;50.874;6.466;2023-07-28T09:07:06;1.63;;;0.80;;
63114;SDS011;49208;50.874;6.466;2023-07-28T09:09:32;1.75;;;0.68;;
63114;SDS011;49208;50.874;6.466;2023-07-28T09:11:59;2.30;;;0.88;;
63114;SDS011;49208;50.874;6.466;2023-07-28T09:14:24;1.95;;;0.82;;
63114;SDS011;49208;50.874;6.466;2023-07-28T09:16:50;2.22;;;0.90;;
63114;SDS011;49208;50.874;6.466;2023-07-28T09:19:16;1.03;;;0.53;;
63114;SDS011;49208;50.874;6.466;2023-07-28T09:21:43;1.50;;;0.70;;
63114;SDS011;49208;50.874;6.466;2023-07-28T09:24:11;1.40;;;0.65;;
63114;SDS011;49208;50.874;6.466;2023-07-28T09:26:38;2.35;;;0.73;;
63114;SDS011;49208;50.874;6.466;2023-07-28T09:29:17;1.63;;;0.73;;
63114;SDS011;49208;50.874;6.466;2023-07-28T09:31:44;0.85;;;0.40;;
63114;SDS011;49208;50.874;6.466;2023-07-28T09:34:22;1.10;;;0.50;;
63114;SDS011;49208;50.874;6.466;2023-07-28T09:36:51;0.70;;;0.50;;
63114;SDS011;49208;50.874;6.466;2023-07-28T09:39:19;1.30;;;0.68;;
63114;SDS011;49208;50.874;6.466;2023-07-28T09:41:45;1.90;;;0.70;;
63114;SDS011;49208;50.874;6.466;2023-07-28T09:44:11;1.80;;;0.60;;
63114;SDS011;49208;50.874;6.466;2023-07-28T09:46:37;1.80;;;0.68;;
63114;SDS011;49208;50.874;6.466;2023-07-28T09:49:20;2.45;;;0.80;;
63114;SDS011;49208;50.874;6.466;2023-07-28T09:52:07;1.55;;;0.82;;
63114;SDS011;49208;50.874;6.466;2023-07-28T09:54:40;1.13;;;0.63;;
63114;SDS011;49208;50.874;6.466;2023-07-28T09:57:08;1.52;;;0.80;;
63114;SDS011;49208;50.874;6.466;2023-07-28T09:59:41;1.95;;;0.70;;
63114;SDS011;49208;50.874;6.466;2023-07-28T10:04:33;1.92;;;0.57;;
63114;SDS011;49208;50.874;6.466;2023-07-28T10:07:00;0.90;;;0.55;;
63114;SDS011;49208;50.874;6.466;2023-07-28T10:09:28;1.65;;;0.73;;
63114;SDS011;49208;50.874;6.466;2023-07-28T10:11:55;1.52;;;0.70;;
63114;SDS011;49208;50.874;6.466;2023-07-28T10:16:57;1.30;;;0.60;;
63114;SDS011;49208;50.874;6.466;2023-07-28T10:21:59;1.60;;;0.70;;
63114;SDS011;49208;50.874;6.466;2023-07-28T10:27:35;0.93;;;0.52;;
63114;SDS011;49208;50.874;6.466;2023-07-28T10:30:05;1.00;;;0.60;;
63114;SDS011;49208;50.874;6.466;2023-07-28T10:32:41;0.98;;;0.47;;
63114;SDS011;49208;50.874;6.466;2023-07-28T10:37:45;1.02;;;0.60;;
63114;SDS011;49208;50.874;6.466;2023-07-28T10:42:51;1.08;;;0.68;;
63114;SDS011;49208;50.874;6.466;2023-07-28T10:45:18;1.42;;;0.85;;
63114;SDS011;49208;50.874;6.466;2023-07-28T10:47:44;1.45;;;0.70;;
63114;SDS011;49208;50.874;6.466;2023-07-28T10:50:10;1.08;;;0.52;;
63114;SDS011;49208;50.874;6.466;2023-07-28T10:52:42;2.55;;;0.68;;
63114;SDS011;49208;50.874;6.466;2023-07-28T10:55:13;1.10;;;0.40;;
63114;SDS011;49208;50.874;6.466;2023-07-28T10:57:43;0.88;;;0.50;;
63114;SDS011;49208;50.874;6.466;2023-07-28T11:00:12;0.63;;;0.40;;
63114;SDS011;49208;50.874;6.466;2023-07-28T11:02:43;1.52;;;0.73;;
63114;SDS011;49208;50.874;6.466;2023-07-28T11:05:22;1.83;;;0.80;;
63114;SDS011;49208;50.874;6.466;2023-07-28T11:07:50;1.58;;;0.68;;
63114;SDS011;49208;50.874;6.466;2023-07-28T11:10:18;2.72;;;0.88;;
63114;SDS011;49208;50.874;6.466;2023-07-28T11:12:44;0.85;;;0.60;;
63114;SDS011;49208;50.874;6.466;2023-07-28T11:15:12;2.63;;;1.00;;
63114;SDS011;49208;50.874;6.466;2023-07-28T11:17:49;0.90;;;0.50;;
63114;SDS011;49208;50.874;6.466;2023-07-28T11:20:22;2.22;;;0.70;;
63114;SDS011;49208;50.874;6.466;2023-07-28T11:22:53;1.08;;;0.70;;
63114;SDS011;49208;50.874;6.466;2023-07-28T11:25:23;1.23;;;0.80;;
63114;SDS011;49208;50.874;6.466;2023-07-28T11:27:50;1.55;;;0.70;;
63114;SDS011;49208;50.874;6.466;2023-07-28T11:30:16;0.98;;;0.60;;
63114;SDS011;49208;50.874;6.466;2023-07-28T11:32:44;1.13;;;0.68;;
63114;SDS011;49208;50.874;6.466;2023-07-28T11:35:14;1.20;;;0.60;;
63114;SDS011;49208;50.874;6.466;2023-07-28T11:37:42;3.55;;;0.73;;
63114;SDS011;49208;50.874;6.466;2023-07-28T11:40:08;6.32;;;1.05;;
63114;SDS011;49208;50.874;6.466;2023-07-28T11:42:43;5.70;;;0.95;;
63114;SDS011;49208;50.874;6.466;2023-07-28T11:45:10;9.65;;;1.45;;
63114;SDS011;49208;50.874;6.466;2023-07-28T11:47:37;11.75;;;1.92;;
63114;SDS011;49208;50.874;6.466;2023-07-28T11:50:02;4.13;;;0.80;;
63114;SDS011;49208;50.874;6.466;2023-07-28T11:52:30;11.25;;;1.83;;
63114;SDS011;49208;50.874;6.466;2023-07-28T11:54:57;28.30;;;3.72;;
63114;SDS011;49208;50.874;6.466;2023-07-28T11:57:24;47.95;;;4.82;;
63114;SDS011;49208;50.874;6.466;2023-07-28T11:59:50;5.63;;;1.35;;
63114;SDS011;49208;50.874;6.466;2023-07-28T12:02:23;11.33;;;1.67;;
63114;SDS011;49208;50.874;6.466;2023-07-28T12:04:50;8.85;;;1.08;;
63114;SDS011;49208;50.874;6.466;2023-07-28T12:07:18;3.17;;;0.85;;
63114;SDS011;49208;50.874;6.466;2023-07-28T12:12:22;1.73;;;0.70;;
63114;SDS011;49208;50.874;6.466;2023-07-28T12:14:49;1.02;;;0.50;;
63114;SDS011;49208;50.874;6.466;2023-07-28T12:17:17;1.38;;;0.80;;
63114;SDS011;49208;50.874;6.466;2023-07-28T12:22:32;2.75;;;0.98;;
63114;SDS011;49208;50.874;6.466;2023-07-28T12:24:57;1.48;;;0.65;;
63114;SDS011;49208;50.874;6.466;2023-07-28T12:27:23;2.97;;;0.95;;
63114;SDS011;49208;50.874;6.466;2023-07-28T12:29:52;2.38;;;0.98;;
63114;SDS011;49208;50.874;6.466;2023-07-28T12:32:17;3.08;;;0.90;;
63114;SDS011;49208;50.874;6.466;2023-07-28T12:34:43;1.63;;;0.80;;
63114;SDS011;49208;50.874;6.466;2023-07-28T12:37:08;3.35;;;0.70;;
63114;SDS011;49208;50.874;6.466;2023-07-28T12:39:37;1.75;;;0.70;;
63114;SDS011;49208;50.874;6.466;2023-07-28T12:42:06;2.17;;;1.08;;
63114;SDS011;49208;50.874;6.466;2023-07-28T12:44:32;0.77;;;0.50;;
63114;SDS011;49208;50.874;6.466;2023-07-28T12:46:58;0.77;;;0.50;;
63114;SDS011;49208;50.874;6.466;2023-07-28T12:49:23;0.45;;;0.20;;
63114;SDS011;49208;50.874;6.466;2023-07-28T12:51:49;0.80;;;0.20;;
63114;SDS011;49208;50.874;6.466;2023-07-28T12:54:14;1.23;;;0.40;;
63114;SDS011;49208;50.874;6.466;2023-07-28T12:56:40;0.45;;;0.32;;
63114;SDS011;49208;50.874;6.466;2023-07-28T12:59:05;1.30;;;0.40;;
63114;SDS011;49208;50.874;6.466;2023-07-28T13:01:31;0.77;;;0.40;;
63114;SDS011;49208;50.874;6.466;2023-07-28T13:03:56;0.60;;;0.30;;
63114;SDS011;49208;50.874;6.466;2023-07-28T13:06:21;0.13;;;0.10;;
63114;SDS011;49208;50.874;6.466;2023-07-28T13:08:47;1.30;;;0.37;;
63114;SDS011;49208;50.874;6.466;2023-07-28T13:11:12;0.23;;;0.20;;
63114;SDS011;49208;50.874;6.466;2023-07-28T13:16:04;0.50;;;0.20;;
63114;SDS011;49208;50.874;6.466;2023-07-28T13:18:30;1.92;;;0.40;;
63114;SDS011;49208;50.874;6.466;2023-07-28T13:20:57;0.60;;;0.10;;
63114;SDS011;49208;50.874;6.466;2023-07-28T13:23:23;0.10;;;0.10;;
63114;SDS011;49208;50.874;6.466;2023-07-28T13:25:48;0.10;;;0.03;;
63114;SDS011;49208;50.874;6.466;2023-07-28T13:28:14;0.10;;;0.10;;
63114;SDS011;49208;50.874;6.466;2023-07-28T13:30:39;0.10;;;0.10;;
63114;SDS011;49208;50.874;6.466;2023-07-28T13:33:05;0.30;;;0.10;;
63114;SDS011;49208;50.874;6.466;2023-07-28T13:35:31;1.15;;;0.17;;
63114;SDS011;49208;50.874;6.466;2023-07-28T13:37:57;0.35;;;0.10;;
63114;SDS011;49208;50.874;6.466;2023-07-28T13:40:23;0.10;;;0.00;;
63114;SDS011;49208;50.874;6.466;2023-07-28T13:42:48;1.10;;;0.13;;
63114;SDS011;49208;50.874;6.466;2023-07-28T13:45:13;0.67;;;0.10;;
63114;SDS011;49208;50.874;6.466;2023-07-28T13:47:39;0.53;;;0.13;;
63114;SDS011;49208;50.874;6.466;2023-07-28T13:50:05;0.37;;;0.10;;
63114;SDS011;49208;50.874;6.466;2023-07-28T13:52:31;0.23;;;0.10;;
63114;SDS011;49208;50.874;6.466;2023-07-28T13:54:56;1.02;;;0.28;;
63114;SDS011;49208;50.874;6.466;2023-07-28T13:57:22;0.37;;;0.10;;
63114;SDS011;49208;50.874;6.466;2023-07-28T13:59:47;0.50;;;0.23;;
63114;SDS011;49208;50.874;6.466;2023-07-28T14:02:13;0.67;;;0.20;;
63114;SDS011;49208;50.874;6.466;2023-07-28T14:04:38;0.15;;;0.10;;
63114;SDS011;49208;50.874;6.466;2023-07-28T14:07:04;0.60;;;0.20;;
63114;SDS011;49208;50.874;6.466;2023-07-28T14:09:29;0.50;;;0.10;;
63114;SDS011;49208;50.874;6.466;2023-07-28T14:11:54;0.50;;;0.20;;
63114;SDS011;49208;50.874;6.466;2023-07-28T14:14:20;0.60;;;0.30;;
63114;SDS011;49208;50.874;6.466;2023-07-28T14:16:45;1.10;;;0.20;;
63114;SDS011;49208;50.874;6.466;2023-07-28T14:19:11;0.10;;;0.10;;
63114;SDS011;49208;50.874;6.466;2023-07-28T14:21:36;0.67;;;0.30;;
63114;SDS011;49208;50.874;6.466;2023-07-28T14:24:03;0.70;;;0.20;;
63114;SDS011;49208;50.874;6.466;2023-07-28T14:26:30;0.30;;;0.20;;
63114;SDS011;49208;50.874;6.466;2023-07-28T14:28:55;1.50;;;0.20;;
63114;SDS011;49208;50.874;6.466;2023-07-28T14:31:21;0.63;;;0.20;;
63114;SDS011;49208;50.874;6.466;2023-07-28T14:33:46;2.43;;;0.20;;
63114;SDS011;49208;50.874;6.466;2023-07-28T14:36:12;1.05;;;0.30;;
63114;SDS011;49208;50.874;6.466;2023-07-28T14:38:37;0.57;;;0.17;;
63114;SDS011;49208;50.874;6.466;2023-07-28T14:41:03;0.10;;;0.10;;
63114;SDS011;49208;50.874;6.466;2023-07-28T14:43:28;0.47;;;0.30;;
63114;SDS011;49208;50.874;6.466;2023-07-28T14:45:54;0.20;;;0.10;;
63114;SDS011;49208;50.874;6.466;2023-07-28T14:48:20;1.83;;;0.50;;
63114;SDS011;49208;50.874;6.466;2023-07-28T14:50:45;2.83;;;0.47;;
63114;SDS011;49208;50.874;6.466;2023-07-28T14:53:30;0.90;;;0.37;;
63114;SDS011;49208;50.874;6.466;2023-07-28T14:56:00;0.60;;;0.30;;
63114;SDS011;49208;50.874;6.466;2023-07-28T14:58:27;0.68;;;0.45;;
63114;SDS011;49208;50.874;6.466;2023-07-28T15:00:53;0.88;;;0.30;;
63114;SDS011;49208;50.874;6.466;2023-07-28T15:03:19;1.10;;;0.40;;
63114;SDS011;49208;50.874;6.466;2023-07-28T15:05:44;0.45;;;0.30;;
63114;SDS011;49208;50.874;6.466;2023-07-28T15:08:10;1.17;;;0.60;;
63114;SDS011;49208;50.874;6.466;2023-07-28T15:10:35;1.43;;;0.60;;
63114;SDS011;49208;50.874;6.466;2023-07-28T15:13:01;1.80;;;0.50;;
63114;SDS011;49208;50.874;6.466;2023-07-28T15:15:26;2.25;;;0.55;;
63114;SDS011;49208;50.874;6.466;2023-07-28T15:17:51;1.33;;;0.60;;
63114;SDS011;49208;50.874;6.466;2023-07-28T15:20:17;1.77;;;0.70;;
63114;SDS011;49208;50.874;6.466;2023-07-28T15:22:45;1.40;;;0.57;;
63114;SDS011;49208;50.874;6.466;2023-07-28T15:25:11;1.23;;;0.63;;
63114;SDS011;49208;50.874;6.466;2023-07-28T15:27:37;2.25;;;0.60;;
63114;SDS011;49208;50.874;6.466;2023-07-28T15:30:02;1.45;;;0.70;;
63114;SDS011;49208;50.874;6.466;2023-07-28T15:32:30;1.95;;;0.90;;
63114;SDS011;49208;50.874;6.466;2023-07-28T15:34:55;2.17;;;0.80;;
63114;SDS011;49208;50.874;6.466;2023-07-28T15:37:20;1.60;;;0.80;;
63114;SDS011;49208;50.874;6.466;2023-07-28T15:39:46;1.45;;;0.70;;
63114;SDS011;49208;50.874;6.466;2023-07-28T15:42:11;1.48;;;0.63;;
63114;SDS011;49208;50.874;6.466;2023-07-28T15:44:37;1.40;;;0.88;;
63114;SDS011;49208;50.874;6.466;2023-07-28T15:47:02;1.50;;;0.70;;
63114;SDS011;49208;50.874;6.466;2023-07-28T15:49:28;2.35;;;0.98;;
63114;SDS011;49208;50.874;6.466;2023-07-28T15:51:53;3.28;;;0.77;;
63114;SDS011;49208;50.874;6.466;2023-07-28T15:54:18;2.53;;;0.82;;
63114;SDS011;49208;50.874;6.466;2023-07-28T15:56:44;2.00;;;0.90;;
63114;SDS011;49208;50.874;6.466;2023-07-28T15:59:10;2.38;;;0.88;;
63114;SDS011;49208;50.874;6.466;2023-07-28T16:01:36;3.00;;;1.10;;
63114;SDS011;49208;50.874;6.466;2023-07-28T16:04:01;1.70;;;0.80;;
63114;SDS011;49208;50.874;6.466;2023-07-28T16:06:27;1.30;;;0.70;;
63114;SDS011;49208;50.874;6.466;2023-07-28T16:08:53;1.75;;;0.85;;
63114;SDS011;49208;50.874;6.466;2023-07-28T16:11:18;1.75;;;0.80;;
63114;SDS011;49208;50.874;6.466;2023-07-28T16:13:45;1.42;;;0.75;;
63114;SDS011;49208;50.874;6.466;2023-07-28T16:16:11;1.70;;;0.80;;
63114;SDS011;49208;50.874;6.466;2023-07-28T16:18:37;1.80;;;0.87;;
63114;SDS011;49208;50.874;6.466;2023-07-28T16:21:02;1.17;;;0.63;;
63114;SDS011;49208;50.874;6.466;2023-07-28T16:23:27;3.90;;;1.30;;
63114;SDS011;49208;50.874;6.466;2023-07-28T16:25:53;2.53;;;1.00;;
63114;SDS011;49208;50.874;6.466;2023-07-28T16:28:18;1.52;;;0.70;;
63114;SDS011;49208;50.874;6.466;2023-07-28T16:30:43;1.73;;;0.70;;
63114;SDS011;49208;50.874;6.466;2023-07-28T16:33:09;2.57;;;0.87;;
63114;SDS011;49208;50.874;6.466;2023-07-28T16:35:35;2.25;;;0.82;;
63114;SDS011;49208;50.874;6.466;2023-07-28T16:38:01;4.05;;;1.50;;
63114;SDS011;49208;50.874;6.466;2023-07-28T16:40:27;1.60;;;0.75;;
63114;SDS011;49208;50.874;6.466;2023-07-28T16:42:53;2.67;;;1.20;;
63114;SDS011;49208;50.874;6.466;2023-07-28T16:45:18;1.08;;;0.68;;
63114;SDS011;49208;50.874;6.466;2023-07-28T16:47:44;3.22;;;1.20;;
63114;SDS011;49208;50.874;6.466;2023-07-28T16:50:09;2.30;;;0.80;;
63114;SDS011;49208;50.874;6.466;2023-07-28T16:52:35;2.37;;;1.10;;
63114;SDS011;49208;50.874;6.466;2023-07-28T16:55:00;1.70;;;0.80;;
63114;SDS011;49208;50.874;6.466;2023-07-28T16:57:27;2.10;;;0.95;;
63114;SDS011;49208;50.874;6.466;2023-07-28T16:59:52;2.95;;;0.90;;
63114;SDS011;49208;50.874;6.466;2023-07-28T17:02:17;1.80;;;0.80;;
63114;SDS011;49208;50.874;6.466;2023-07-28T17:04:43;2.53;;;0.80;;
63114;SDS011;49208;50.874;6.466;2023-07-28T17:07:08;2.23;;;1.13;;
63114;SDS011;49208;50.874;6.466;2023-07-28T17:09:34;2.70;;;1.20;;
63114;SDS011;49208;50.874;6.466;2023-07-28T17:12:00;2.73;;;1.30;;
63114;SDS011;49208;50.874;6.466;2023-07-28T17:14:26;3.80;;;1.27;;
63114;SDS011;49208;50.874;6.466;2023-07-28T17:16:51;2.03;;;1.00;;
63114;SDS011;49208;50.874;6.466;2023-07-28T17:19:17;2.80;;;1.00;;
63114;SDS011;49208;50.874;6.466;2023-07-28T17:21:42;2.40;;;0.93;;
63114;SDS011;49208;50.874;6.466;2023-07-28T17:24:08;2.30;;;1.07;;
63114;SDS011;49208;50.874;6.466;2023-07-28T17:26:33;3.22;;;1.17;;
63114;SDS011;49208;50.874;6.466;2023-07-28T17:28:59;2.43;;;1.40;;
63114;SDS011;49208;50.874;6.466;2023-07-28T17:31:24;2.95;;;0.93;;
63114;SDS011;49208;50.874;6.466;2023-07-28T17:33:50;3.50;;;1.00;;
63114;SDS011;49208;50.874;6.466;2023-07-28T17:36:15;2.57;;;1.20;;
63114;SDS011;49208;50.874;6.466;2023-07-28T17:38:41;4.10;;;1.23;;
63114;SDS011;49208;50.874;6.466;2023-07-28T17:41:06;2.17;;;1.07;;
63114;SDS011;49208;50.874;6.466;2023-07-28T17:43:32;1.90;;;0.90;;
63114;SDS011;49208;50.874;6.466;2023-07-28T17:45:58;2.13;;;1.05;;
63114;SDS011;49208;50.874;6.466;2023-07-28T17:48:26;2.17;;;0.90;;
63114;SDS011;49208;50.874;6.466;2023-07-28T17:50:52;3.17;;;1.00;;
63114;SDS011;49208;50.874;6.466;2023-07-28T17:53:18;3.00;;;1.23;;
63114;SDS011;49208;50.874;6.466;2023-07-28T17:55:44;4.22;;;1.17;;
63114;SDS011;49208;50.874;6.466;2023-07-28T17:58:10;2.63;;;1.08;;
63114;SDS011;49208;50.874;6.466;2023-07-28T18:00:36;2.43;;;1.10;;
63114;SDS011;49208;50.874;6.466;2023-07-28T18:03:01;2.53;;;1.00;;
63114;SDS011;49208;50.874;6.466;2023-07-28T18:05:27;3.55;;;1.20;;
63114;SDS011;49208;50.874;6.466;2023-07-28T18:07:53;4.45;;;1.10;;
63114;SDS011;49208;50.874;6.466;2023-07-28T18:10:18;3.08;;;0.95;;
63114;SDS011;49208;50.874;6.466;2023-07-28T18:12:44;2.17;;;0.93;;
63114;SDS011;49208;50.874;6.466;2023-07-28T18:15:09;3.40;;;1.40;;
63114;SDS011;49208;50.874;6.466;2023-07-28T18:17:35;3.53;;;1.55;;
63114;SDS011;49208;50.874;6.466;2023-07-28T18:20:00;2.50;;;1.42;;
63114;SDS011;49208;50.874;6.466;2023-07-28T18:22:26;2.95;;;1.42;;
63114;SDS011;49208;50.874;6.466;2023-07-28T18:24:51;2.35;;;1.15;;
63114;SDS011;49208;50.874;6.466;2023-07-28T18:27:17;2.08;;;1.00;;
63114;SDS011;49208;50.874;6.466;2023-07-28T18:29:42;3.78;;;1.35;;
63114;SDS011;49208;50.874;6.466;2023-07-28T18:32:07;2.60;;;1.35;;
63114;SDS011;49208;50.874;6.466;2023-07-28T18:34:33;2.30;;;1.13;;
63114;SDS011;49208;50.874;6.466;2023-07-28T18:36:59;2.47;;;0.90;;
63114;SDS011;49208;50.874;6.466;2023-07-28T18:39:24;2.95;;;1.10;;
63114;SDS011;49208;50.874;6.466;2023-07-28T18:41:50;1.80;;;1.17;;
63114;SDS011;49208;50.874;6.466;2023-07-28T18:44:15;1.95;;;0.95;;
63114;SDS011;49208;50.874;6.466;2023-07-28T18:46:40;3.33;;;1.38;;
63114;SDS011;49208;50.874;6.466;2023-07-28T18:49:06;2.33;;;1.15;;
63114;SDS011;49208;50.874;6.466;2023-07-28T18:51:32;2.78;;;1.13;;
63114;SDS011;49208;50.874;6.466;2023-07-28T18:53:58;2.97;;;1.27;;
63114;SDS011;49208;50.874;6.466;2023-07-28T18:56:23;1.80;;;1.10;;
63114;SDS011;49208;50.874;6.466;2023-07-28T18:58:49;2.92;;;1.30;;
63114;SDS011;49208;50.874;6.466;2023-07-28T19:01:15;2.38;;;1.45;;
63114;SDS011;49208;50.874;6.466;2023-07-28T19:03:41;3.13;;;1.40;;
63114;SDS011;49208;50.874;6.466;2023-07-28T19:06:06;2.78;;;1.20;;
63114;SDS011;49208;50.874;6.466;2023-07-28T19:08:32;2.22;;;1.08;;
63114;SDS011;49208;50.874;6.466;2023-07-28T19:10:57;3.47;;;1.10;;
63114;SDS011;49208;50.874;6.466;2023-07-28T19:13:23;3.38;;;1.40;;
63114;SDS011;49208;50.874;6.466;2023-07-28T19:15:49;3.80;;;1.40;;
63114;SDS011;49208;50.874;6.466;2023-07-28T19:18:15;2.50;;;1.17;;
63114;SDS011;49208;50.874;6.466;2023-07-28T19:20:40;3.00;;;1.45;;
63114;SDS011;49208;50.874;6.466;2023-07-28T19:23:06;2.85;;;1.38;;
63114;SDS011;49208;50.874;6.466;2023-07-28T19:25:32;3.17;;;1.20;;
63114;SDS011;49208;50.874;6.466;2023-07-28T19:27:58;2.22;;;1.15;;
63114;SDS011;49208;50.874;6.466;2023-07-28T19:30:24;3.00;;;1.40;;
63114;SDS011;49208;50.874;6.466;2023-07-28T19:32:49;3.17;;;1.27;;
63114;SDS011;49208;50.874;6.466;2023-07-28T19:35:14;2.72;;;1.10;;
63114;SDS011;49208;50.874;6.466;2023-07-28T19:37:40;2.75;;;1.00;;
63114;SDS011;49208;50.874;6.466;2023-07-28T19:40:05;2.05;;;0.80;;
63114;SDS011;49208;50.874;6.466;2023-07-28T19:42:32;1.53;;;0.83;;
63114;SDS011;49208;50.874;6.466;2023-07-28T19:44:57;1.85;;;0.93;;
63114;SDS011;49208;50.874;6.466;2023-07-28T19:47:23;1.98;;;1.02;;
63114;SDS011;49208;50.874;6.466;2023-07-28T19:49:48;1.67;;;0.80;;
63114;SDS011;49208;50.874;6.466;2023-07-28T19:52:13;2.97;;;0.90;;
63114;SDS011;49208;50.874;6.466;2023-07-28T19:54:39;4.80;;;1.10;;
63114;SDS011;49208;50.874;6.466;2023-07-28T19:57:08;1.75;;;0.90;;
63114;SDS011;49208;50.874;6.466;2023-07-28T19:59:33;1.90;;;0.90;;
63114;SDS011;49208;50.874;6.466;2023-07-28T20:01:59;2.17;;;1.02;;
63114;SDS011;49208;50.874;6.466;2023-07-28T20:04:24;2.30;;;0.77;;
63114;SDS011;49208;50.874;6.466;2023-07-28T20:06:51;2.08;;;0.77;;
63114;SDS011;49208;50.874;6.466;2023-07-28T20:09:17;2.45;;;0.98;;
63114;SDS011;49208;50.874;6.466;2023-07-28T20:11:43;2.20;;;0.90;;
63114;SDS011;49208;50.874;6.466;2023-07-28T20:14:08;1.50;;;0.70;;
63114;SDS011;49208;50.874;6.466;2023-07-28T20:16:33;2.00;;;0.75;;
63114;SDS011;49208;50.874;6.466;2023-07-28T20:18:59;1.95;;;0.85;;
63114;SDS011;49208;50.874;6.466;2023-07-28T20:21:25;1.00;;;0.70;;
63114;SDS011;49208;50.874;6.466;2023-07-28T20:23:50;3.85;;;0.57;;
63114;SDS011;49208;50.874;6.466;2023-07-28T20:26:16;1.65;;;0.70;;
63114;SDS011;49208;50.874;6.466;2023-07-28T20:28:42;1.40;;;0.60;;
63114;SDS011;49208;50.874;6.466;2023-07-28T20:31:08;0.85;;;0.50;;
63114;SDS011;49208;50.874;6.466;2023-07-28T20:33:33;1.95;;;0.75;;
63114;SDS011;49208;50.874;6.466;2023-07-28T20:35:59;2.17;;;1.00;;
63114;SDS011;49208;50.874;6.466;2023-07-28T20:38:25;2.15;;;0.73;;
63114;SDS011;49208;50.874;6.466;2023-07-28T20:40:51;2.05;;;0.82;;
63114;SDS011;49208;50.874;6.466;2023-07-28T20:43:16;1.80;;;0.70;;
63114;SDS011;49208;50.874;6.466;2023-07-28T20:45:42;1.20;;;0.60;;
63114;SDS011;49208;50.874;6.466;2023-07-28T20:48:07;1.48;;;0.52;;
63114;SDS011;49208;50.874;6.466;2023-07-28T20:50:33;1.33;;;0.70;;
63114;SDS011;49208;50.874;6.466;2023-07-28T20:52:59;1.63;;;0.93;;
63114;SDS011;49208;50.874;6.466;2023-07-28T20:55:24;1.80;;;0.63;;
63114;SDS011;49208;50.874;6.466;2023-07-28T20:57:49;2.10;;;0.82;;
63114;SDS011;49208;50.874;6.466;2023-07-28T21:00:15;3.03;;;0.90;;
63114;SDS011;49208;50.874;6.466;2023-07-28T21:02:40;2.95;;;1.08;;
63114;SDS011;49208;50.874;6.466;2023-07-28T21:05:06;2.80;;;1.10;;
63114;SDS011;49208;50.874;6.466;2023-07-28T21:07:33;2.20;;;0.80;;